Terminal Aerodrome Forecast
Issued by NWS Wakefield, VA

Home | Current Version | Previous Version | Text Only | Print | Product List | Glossary On
Versions: 1 2 3 4 5 6 7 8 9 10 11 12 13 14 15 16 17 18
000
FTUS41 KAKQ 221700
TAFECG
TAF
KECG 221734Z 2218/2318 10010KT P6SM SCT025 BKN060
     FM222000 14009KT P6SM BKN025 OVC060
     FM230300 22004KT P6SM SCT025 BKN100=

USA.gov is the U.S. government's official web portal to all federal, state and local government web resources and services.